Time;durP1;ratioP1;P1;durP2;ratioP2;P2;SDS_P1;SDS_P2;PMS_P1;PMS_P2;Temp;Humidity;BMP_temperature;BMP_pressure;BME280_temperature;BME280_humidity;BME280_pressure;Samples;Min_cycle;Max_cycle;Signal;HPM_P1;HPM_P2
2023/04/19 00:00:13;;;;;;;15.30;12.73;;;;;;;6.16;nan;97530.66;5013892;28;21102;-71
2023/04/19 00:02:42;;;;;;;14.77;13.37;;;;;;;6.15;nan;97521.13;5051540;28;20202;-70
2023/04/19 00:05:10;;;;;;;15.57;13.90;;;;;;;6.11;nan;97519.75;5050980;28;20194;-71
2023/04/19 00:07:38;;;;;;;14.53;13.03;;;;;;;6.16;nan;97514.88;5025064;28;20677;-70
2023/04/19 00:10:08;;;;;;;15.70;14.00;;;;;;;6.13;nan;97509.91;5007085;28;20210;-71
2023/04/19 00:12:36;;;;;;;15.30;13.77;;;;;;;6.14;nan;97511.56;5051275;28;20234;-72
2023/04/19 00:15:04;;;;;;;14.60;13.10;;;;;;;6.16;nan;97514.88;5033932;28;20303;-70
2023/04/19 00:17:33;;;;;;;14.43;13.03;;;;;;;6.23;nan;97509.84;5034938;28;20294;-71
2023/04/19 00:20:01;;;;;;;15.23;13.57;;;;;;;6.27;nan;97505.97;5057285;28;20207;-71
2023/04/19 00:22:29;;;;;;;14.97;13.37;;;;;;;6.34;nan;97509.66;5025731;28;20959;-72
2023/04/19 00:24:57;;;;;;;16.10;14.50;;;;;;;6.37;nan;97506.72;5000447;28;20613;-72
2023/04/19 00:27:25;;;;;;;16.20;14.10;;;;;;;6.41;nan;97501.16;5057712;28;20214;-71
2023/04/19 00:29:52;;;;;;;15.23;13.70;;;;;;;6.45;nan;97502.50;5043400;28;20471;-72
2023/04/19 00:32:20;;;;;;;15.93;14.30;;;;;;;6.45;nan;97495.44;5040288;28;20218;-69
2023/04/19 00:34:49;;;;;;;15.20;13.70;;;;;;;6.48;nan;97489.88;5052817;28;20935;-72
2023/04/19 00:37:17;;;;;;;14.40;12.97;;;;;;;6.50;nan;97490.56;5049749;28;20211;-70
2023/04/19 00:39:48;;;;;;;14.37;12.90;;;;;;;6.53;nan;97484.16;5015911;28;20206;-72
2023/04/19 00:42:17;;;;;;;15.00;13.70;;;;;;;6.58;nan;97486.34;5044333;28;20534;-71
2023/04/19 00:44:45;;;;;;;15.00;13.40;;;;;;;6.57;nan;97488.13;5050241;28;20445;-72
2023/04/19 00:47:14;;;;;;;14.00;12.53;;;;;;;6.62;nan;97493.75;5024969;28;20378;-71
2023/04/19 00:49:42;;;;;;;15.17;13.57;;;;;;;6.62;nan;97488.50;5053546;28;20206;-70
2023/04/19 00:52:11;;;;;;;14.13;12.73;;;;;;;6.70;nan;97489.56;5050424;28;20210;-71
2023/04/19 00:54:40;;;;;;;14.73;13.33;;;;;;;6.69;nan;97477.38;5034151;28;20241;-71
2023/04/19 00:57:08;;;;;;;15.03;13.53;;;;;;;6.75;nan;97482.84;5010228;28;20218;-71
2023/04/19 00:59:36;;;;;;;14.50;13.17;;;;;;;6.77;nan;97487.97;5051509;28;20211;-71
2023/04/19 01:02:03;;;;;;;15.90;13.87;;;;;;;6.72;nan;97483.16;5015731;28;21722;-71
2023/04/19 01:04:31;;;;;;;14.07;12.70;;;;;;;6.72;nan;97480.53;5053735;28;20222;-72
2023/04/19 01:06:59;;;;;;;15.27;13.30;;;;;;;6.75;nan;97474.94;5047938;28;20301;-70
2023/04/19 01:09:28;;;;;;;16.23;13.53;;;;;;;6.76;nan;97468.69;5035664;28;20280;-70
2023/04/19 01:11:56;;;;;;;15.33;13.83;;;;;;;6.79;nan;97467.59;5000114;28;20215;-71
2023/04/19 01:14:23;;;;;;;15.60;14.07;;;;;;;6.79;nan;97464.94;5054468;28;20407;-70
2023/04/19 01:16:51;;;;;;;14.63;13.13;;;;;;;6.83;nan;97468.94;5040274;28;20225;-72
2023/04/19 01:19:20;;;;;;;16.67;14.93;;;;;;;6.88;nan;97464.03;5043625;28;20397;-72
2023/04/19 01:21:48;;;;;;;15.03;13.63;;;;;;;6.89;nan;97457.78;5052022;28;20214;-72
2023/04/19 01:24:18;;;;;;;15.03;13.43;;;;;;;6.86;nan;97465.19;5028567;28;20253;-72
2023/04/19 01:26:46;;;;;;;16.27;14.57;;;;;;;6.87;nan;97457.09;5036023;28;20218;-73
2023/04/19 01:29:14;;;;;;;16.67;14.87;;;;;;;6.90;nan;97453.34;5032089;28;20394;-71
2023/04/19 01:31:42;;;;;;;15.53;13.83;;;;;;;6.89;nan;97446.44;5052643;28;20202;-72
2023/04/19 01:34:10;;;;;;;15.83;14.33;;;;;;;6.86;nan;97449.38;5043286;28;20456;-70
2023/04/19 01:36:38;;;;;;;17.33;15.63;;;;;;;6.88;nan;97450.03;5055854;28;20210;-72
2023/04/19 01:39:06;;;;;;;17.03;15.43;;;;;;;6.87;nan;97446.56;5022587;28;23558;-72
2023/04/19 01:41:35;;;;;;;16.67;14.97;;;;;;;6.84;nan;97443.44;5055756;28;20699;-71
2023/04/19 01:44:02;;;;;;;18.17;16.27;;;;;;;6.83;nan;97439.94;5008170;28;20232;-70
2023/04/19 01:46:30;;;;;;;17.23;15.47;;;;;;;6.74;nan;97433.78;5048534;28;20290;-72
2023/04/19 01:48:58;;;;;;;16.90;15.10;;;;;;;6.71;nan;97435.94;5028101;28;20210;-72
2023/04/19 01:51:26;;;;;;;17.90;16.10;;;;;;;6.73;nan;97442.69;5049043;28;20226;-71
2023/04/19 01:53:53;;;;;;;17.03;15.20;;;;;;;6.76;nan;97436.28;5032531;28;21075;-72
2023/04/19 01:56:21;;;;;;;17.87;15.20;;;;;;;6.79;nan;97436.78;5035881;28;20206;-72
2023/04/19 01:58:50;;;;;;;17.10;15.40;;;;;;;6.84;nan;97438.16;4983523;28;20666;-72
2023/04/19 02:08:53;;;;;;;16.60;15.10;;;;;;;6.89;nan;97434.06;5017771;28;20505;-72
2023/04/19 02:11:21;;;;;;;17.13;15.33;;;;;;;6.85;nan;97424.00;5022160;28;20484;-73
2023/04/19 02:13:48;;;;;;;17.60;15.70;;;;;;;6.84;nan;97423.16;5054285;28;20314;-73
2023/04/19 02:16:17;;;;;;;17.37;15.57;;;;;;;6.83;nan;97420.72;4982473;28;20315;-72
2023/04/19 02:18:45;;;;;;;16.53;14.93;;;;;;;6.81;nan;97419.03;5031959;28;20669;-71
2023/04/19 02:21:13;;;;;;;16.93;15.13;;;;;;;6.79;nan;97414.91;5010597;28;20387;-71
2023/04/19 02:23:41;;;;;;;18.03;16.13;;;;;;;6.78;nan;97418.53;5048580;28;20332;-71
2023/04/19 02:26:10;;;;;;;18.10;16.30;;;;;;;6.68;nan;97410.72;5013087;28;21596;-71
2023/04/19 02:28:38;;;;;;;17.37;15.57;;;;;;;6.78;nan;97419.34;5049417;28;20225;-71
2023/04/19 02:31:07;;;;;;;17.97;16.07;;;;;;;6.77;nan;97407.16;4996294;28;20213;-71
2023/04/19 02:33:36;;;;;;;17.83;16.10;;;;;;;6.85;nan;97419.56;5046140;28;20531;-72
2023/04/19 02:36:04;;;;;;;17.03;15.33;;;;;;;6.80;nan;97411.28;5028863;28;20244;-72
2023/04/19 02:38:31;;;;;;;16.90;15.30;;;;;;;6.79;nan;97410.44;5043483;28;20218;-72
2023/04/19 02:41:00;;;;;;;16.37;14.87;;;;;;;6.81;nan;97405.84;5043904;28;20460;-71
2023/04/19 02:43:28;;;;;;;18.30;16.50;;;;;;;6.85;nan;97410.84;5035660;28;20648;-71
2023/04/19 02:45:56;;;;;;;18.20;16.33;;;;;;;6.79;nan;97404.38;4998207;28;20218;-72
2023/04/19 02:48:23;;;;;;;17.87;16.07;;;;;;;6.79;nan;97402.56;5052607;28;20248;-69
2023/04/19 02:50:52;;;;;;;18.13;15.83;;;;;;;6.80;nan;97395.50;5030664;28;20245;-71
2023/04/19 02:53:20;;;;;;;18.53;16.67;;;;;;;6.63;nan;97390.13;5038385;28;20843;-70
2023/04/19 02:55:48;;;;;;;17.40;15.77;;;;;;;6.56;nan;97378.53;5039752;28;20202;-71
2023/04/19 02:58:16;;;;;;;16.63;14.97;;;;;;;6.48;nan;97392.47;5024528;28;20456;-71
2023/04/19 03:00:45;;;;;;;19.00;17.13;;;;;;;6.49;nan;97388.03;5030853;28;20210;-69
2023/04/19 03:03:14;;;;;;;18.93;16.23;;;;;;;6.55;nan;97383.97;5032707;28;20878;-64
2023/04/19 03:05:43;;;;;;;18.03;16.23;;;;;;;6.60;nan;97384.31;5015341;28;20439;-72
2023/04/19 03:08:12;;;;;;;18.33;16.43;;;;;;;6.59;nan;97380.03;5021834;28;20220;-72
2023/04/19 03:10:40;;;;;;;17.57;15.80;;;;;;;6.61;nan;97378.09;5056456;28;20211;-72
2023/04/19 03:13:08;;;;;;;17.17;15.43;;;;;;;6.65;nan;97377.63;5009883;28;20820;-70
2023/04/19 03:15:35;;;;;;;18.33;16.37;;;;;;;6.64;nan;97375.97;5057524;28;20232;-73
2023/04/19 03:18:03;;;;;;;17.30;15.50;;;;;;;6.64;nan;97372.50;5003640;28;20396;-71
2023/04/19 03:20:31;;;;;;;18.53;16.57;;;;;;;6.58;nan;97375.75;5050121;28;20210;-71
2023/04/19 03:22:59;;;;;;;17.73;15.93;;;;;;;6.49;nan;97364.34;5014825;28;20765;-71
2023/04/19 03:25:28;;;;;;;18.27;16.37;;;;;;;6.50;nan;97361.56;5060097;28;20651;-70
2023/04/19 03:27:56;;;;;;;17.37;15.63;;;;;;;6.47;nan;97361.03;5050687;28;20210;-71
2023/04/19 03:30:24;;;;;;;17.70;16.00;;;;;;;6.43;nan;97357.88;5031623;28;20211;-71
2023/04/19 03:32:51;;;;;;;25.30;20.53;;;;;;;6.41;nan;97357.19;4999818;28;20233;-71
2023/04/19 03:35:20;;;;;;;21.80;19.60;;;;;;;6.43;nan;97349.97;5049930;28;20226;-71
2023/04/19 03:37:47;;;;;;;17.30;15.60;;;;;;;6.43;nan;97357.88;5024661;28;20210;-72
2023/04/19 03:40:15;;;;;;;18.27;16.47;;;;;;;6.37;nan;97354.06;5053741;28;20792;-72
2023/04/19 03:42:44;;;;;;;18.40;16.60;;;;;;;6.34;nan;97357.00;5049672;28;20267;-72
2023/04/19 03:45:12;;;;;;;18.37;16.23;;;;;;;6.30;nan;97353.03;5030404;28;20206;-69
2023/04/19 03:47:43;;;;;;;17.23;15.60;;;;;;;6.24;nan;97348.34;5037595;28;20586;-73
2023/04/19 03:50:16;;;;;;;16.80;15.10;;;;;;;6.17;nan;97350.78;5055898;28;20420;-71
2023/04/19 03:52:43;;;;;;;17.83;16.00;;;;;;;6.13;nan;97354.69;5032389;28;20275;-72
2023/04/19 03:55:12;;;;;;;18.23;16.37;;;;;;;6.07;nan;97347.41;5051188;28;20257;-71
2023/04/19 03:57:40;;;;;;;17.33;15.60;;;;;;;6.01;nan;97342.72;5060339;28;20210;-74
2023/04/19 04:00:11;;;;;;;18.47;16.57;;;;;;;5.91;nan;97342.81;5036381;28;20210;-73
2023/04/19 04:02:39;;;;;;;18.03;16.33;;;;;;;5.93;nan;97333.78;5055377;28;20695;-76
2023/04/19 04:05:07;;;;;;;19.77;17.83;;;;;;;5.90;nan;97341.16;5006815;28;20283;-74
2023/04/19 04:07:35;;;;;;;19.03;15.47;;;;;;;5.87;nan;97341.44;5048288;28;20449;-76
2023/04/19 04:10:04;;;;;;;16.80;14.93;;;;;;;5.80;nan;97344.66;5022816;28;21073;-76
2023/04/19 04:12:31;;;;;;;17.03;15.33;;;;;;;5.78;nan;97343.16;5057601;28;20272;-75
2023/04/19 04:14:59;;;;;;;17.57;15.90;;;;;;;5.71;nan;97342.13;5031897;28;20564;-71
2023/04/19 04:17:28;;;;;;;17.37;15.77;;;;;;;5.63;nan;97345.47;5054479;28;20210;-73
2023/04/19 04:19:56;;;;;;;17.73;15.83;;;;;;;5.60;nan;97343.16;5010426;28;22003;-74
2023/04/19 04:22:24;;;;;;;19.27;15.87;;;;;;;5.56;nan;97347.06;5055397;28;20295;-72
2023/04/19 04:24:52;;;;;;;18.30;16.33;;;;;;;5.50;nan;97348.47;5033371;28;20223;-73
2023/04/19 04:27:20;;;;;;;17.13;15.33;;;;;;;5.49;nan;97347.66;5055170;28;20211;-74
2023/04/19 04:29:49;;;;;;;18.67;16.87;;;;;;;5.50;nan;97349.31;5036217;28;20213;-73
2023/04/19 04:32:17;;;;;;;18.43;16.53;;;;;;;5.48;nan;97343.34;5026308;28;20214;-71
2023/04/19 04:34:46;;;;;;;17.20;15.40;;;;;;;5.45;nan;97341.00;5028306;28;20257;-71
2023/04/19 04:37:13;;;;;;;18.20;16.40;;;;;;;5.46;nan;97342.66;5000677;28;20279;-69
2023/04/19 04:39:44;;;;;;;19.27;16.77;;;;;;;5.41;nan;97334.41;5035115;28;20218;-73
2023/04/19 04:42:12;;;;;;;17.43;15.83;;;;;;;5.42;nan;97343.94;5062917;28;20202;-74
2023/04/19 04:44:40;;;;;;;20.17;18.07;;;;;;;5.47;nan;97335.63;5059467;28;20237;-75
2023/04/19 04:47:08;;;;;;;18.83;16.77;;;;;;;5.42;nan;97333.44;5038122;28;20242;-74
2023/04/19 04:49:36;;;;;;;18.70;16.70;;;;;;;5.35;nan;97338.47;5060907;28;20404;-78
2023/04/19 04:52:07;;;;;;;17.97;16.07;;;;;;;5.44;nan;97336.72;5003932;28;20215;-73
2023/04/19 04:54:35;;;;;;;17.90;16.07;;;;;;;5.57;nan;97340.81;5036916;28;20689;-74
2023/04/19 04:57:02;;;;;;;21.50;16.50;;;;;;;5.62;nan;97336.75;5057334;28;20766;-70
2023/04/19 04:59:30;;;;;;;17.87;16.07;;;;;;;5.72;nan;97336.69;5021117;28;20354;-75
2023/04/19 05:01:58;;;;;;;17.97;16.13;;;;;;;5.77;nan;97334.44;5035581;28;20210;-73
2023/04/19 05:04:26;;;;;;;17.43;15.63;;;;;;;5.83;nan;97327.78;5055869;28;20234;-76
2023/04/19 05:06:53;;;;;;;18.03;16.20;;;;;;;5.80;nan;97334.13;5009226;28;20596;-71
2023/04/19 05:09:26;;;;;;;18.63;16.80;;;;;;;5.73;nan;97316.50;5040897;28;20207;-74
2023/04/19 05:11:54;;;;;;;18.63;16.83;;;;;;;5.90;nan;97325.38;5056982;28;20203;-74
2023/04/19 05:14:21;;;;;;;18.40;16.40;;;;;;;6.02;nan;97324.19;5055029;28;20226;-74
2023/04/19 05:16:49;;;;;;;19.23;17.23;;;;;;;6.09;nan;97321.78;5052480;28;20263;-73
2023/04/19 05:19:17;;;;;;;18.10;16.30;;;;;;;6.08;nan;97323.56;5034612;28;20214;-74
2023/04/19 05:21:45;;;;;;;18.10;16.20;;;;;;;6.15;nan;97325.59;5002935;28;21802;-75
2023/04/19 05:24:12;;;;;;;19.00;17.10;;;;;;;6.23;nan;97323.84;5056040;28;20239;-75
2023/04/19 05:26:43;;;;;;;17.23;15.47;;;;;;;6.26;nan;97322.75;5037535;28;20271;-72
2023/04/19 05:29:11;;;;;;;17.33;15.73;;;;;;;6.35;nan;97323.59;5057560;28;20271;-73
2023/04/19 05:31:38;;;;;;;16.40;14.80;;;;;;;6.36;nan;97318.19;5056535;28;20940;-72
2023/04/19 05:34:06;;;;;;;17.83;15.97;;;;;;;6.30;nan;97315.34;5031539;28;20230;-72
2023/04/19 05:36:34;;;;;;;17.07;15.37;;;;;;;6.23;nan;97321.22;5007846;28;21665;-73
2023/04/19 05:39:01;;;;;;;20.60;17.63;;;;;;;6.33;nan;97318.50;5053754;28;20211;-73
2023/04/19 05:41:29;;;;;;;17.37;15.57;;;;;;;6.32;nan;97310.75;5031624;28;20443;-71
2023/04/19 05:43:58;;;;;;;15.97;14.47;;;;;;;6.28;nan;97312.88;5053286;28;20438;-74
2023/04/19 05:46:26;;;;;;;16.60;15.00;;;;;;;6.31;nan;97307.31;5051697;28;20199;-74
2023/04/19 05:48:53;;;;;;;16.67;15.00;;;;;;;6.25;nan;97302.66;5032219;28;20433;-73
2023/04/19 05:51:21;;;;;;;16.57;14.80;;;;;;;6.23;nan;97300.19;5050295;28;20462;-74
2023/04/19 05:53:49;;;;;;;16.40;14.90;;;;;;;6.39;nan;97308.34;5002274;28;20226;-70
2023/04/19 05:56:17;;;;;;;18.37;16.13;;;;;;;6.45;nan;97298.03;5044804;28;20240;-73
2023/04/19 05:58:45;;;;;;;17.43;15.73;;;;;;;6.57;nan;97306.47;5043093;28;20660;-74
2023/04/19 06:01:15;;;;;;;17.97;16.27;;;;;;;6.61;nan;97302.53;5055426;28;20946;-74
2023/04/19 06:03:43;;;;;;;16.57;14.97;;;;;;;6.65;nan;97285.47;5032173;28;20920;-73
2023/04/19 06:06:11;;;;;;;19.17;15.90;;;;;;;6.72;nan;97292.75;5053918;28;20207;-75
2023/04/19 06:08:39;;;;;;;16.47;14.77;;;;;;;6.83;nan;97295.09;5006454;28;20560;-73
2023/04/19 06:11:07;;;;;;;16.27;14.57;;;;;;;6.81;nan;97292.59;5053496;28;20777;-71
2023/04/19 06:13:50;;;;;;;15.67;14.27;;;;;;;6.72;nan;97287.47;5033715;28;20233;-72
2023/04/19 06:16:20;;;;;;;15.33;13.80;;;;;;;6.74;nan;97296.84;5055240;28;20233;-73
2023/04/19 06:18:47;;;;;;;15.07;13.67;;;;;;;6.77;nan;97293.91;5051654;28;20211;-72
2023/04/19 06:21:16;;;;;;;16.00;14.40;;;;;;;6.74;nan;97291.59;5034013;28;20211;-75
2023/04/19 06:23:43;;;;;;;15.57;13.73;;;;;;;6.81;nan;97289.97;5051259;28;20867;-73
2023/04/19 06:26:11;;;;;;;16.40;14.87;;;;;;;6.84;nan;97290.66;5013371;28;20623;-73
2023/04/19 06:28:39;;;;;;;15.13;13.73;;;;;;;6.77;nan;97296.53;5038857;28;20335;-71
2023/04/19 06:31:07;;;;;;;15.07;13.57;;;;;;;6.76;nan;97287.00;5054074;28;20409;-71
2023/04/19 06:33:36;;;;;;;16.27;14.57;;;;;;;6.69;nan;97282.53;5052908;28;20221;-71
2023/04/19 06:36:05;;;;;;;16.43;14.73;;;;;;;6.67;nan;97280.03;5028704;28;20237;-73
2023/04/19 06:38:33;;;;;;;15.93;14.23;;;;;;;6.77;nan;97290.47;5046889;28;20226;-74
2023/04/19 06:41:01;;;;;;;15.20;13.77;;;;;;;6.78;nan;97287.66;5005460;28;20646;-73
2023/04/19 06:43:28;;;;;;;16.17;14.67;;;;;;;6.80;nan;97283.06;5031488;28;20513;-72
2023/04/19 06:46:00;;;;;;;28.57;25.73;;;;;;;6.79;nan;97291.13;5053154;28;20572;-73
2023/04/19 06:48:28;;;;;;;17.77;16.00;;;;;;;6.86;nan;97297.41;5052875;28;20681;-72
2023/04/19 06:50:57;;;;;;;16.50;14.80;;;;;;;6.86;nan;97291.34;5030304;28;20218;-71
2023/04/19 06:53:26;;;;;;;16.63;15.03;;;;;;;6.80;nan;97279.63;5051315;28;20765;-75
2023/04/19 06:55:59;;;;;;;16.10;14.50;;;;;;;6.77;nan;97287.84;5000726;28;20829;-73
2023/04/19 06:58:28;;;;;;;17.50;15.83;;;;;;;6.80;nan;97290.16;5028320;28;20218;-73
2023/04/19 07:00:55;;;;;;;17.20;15.43;;;;;;;6.88;nan;97282.28;5056122;28;20527;-71
2023/04/19 07:03:23;;;;;;;17.93;15.13;;;;;;;7.00;nan;97281.97;5047953;28;20222;-75
2023/04/19 07:05:54;;;;;;;16.47;14.87;;;;;;;7.04;nan;97283.34;5029793;28;20209;-72
2023/04/19 07:08:24;;;;;;;16.37;14.77;;;;;;;7.07;nan;97285.66;5052309;28;20197;-73
2023/04/19 07:10:58;;;;;;;16.70;15.03;;;;;;;7.09;nan;97284.50;5002878;28;20222;-73
2023/04/19 07:13:26;;;;;;;18.07;16.20;;;;;;;7.06;nan;97281.38;5055509;28;20294;-73
2023/04/19 07:15:54;;;;;;;16.83;15.13;;;;;;;7.02;nan;97272.16;5031179;28;20698;-73
2023/04/19 07:18:21;;;;;;;14.63;13.00;;;;;;;7.10;nan;97274.81;5052661;28;20237;-73
2023/04/19 07:20:49;;;;;;;13.83;12.63;;;;;;;7.00;nan;97274.91;5054368;28;20206;-74
2023/04/19 07:23:18;;;;;;;14.63;13.10;;;;;;;6.97;nan;97269.97;5030730;28;20598;-73
2023/04/19 07:25:47;;;;;;;14.50;13.10;;;;;;;7.05;nan;97274.47;5005748;28;21530;-74
2023/04/19 07:28:15;;;;;;;14.43;13.03;;;;;;;7.10;nan;97269.53;5055911;28;20681;-73
2023/04/19 07:30:44;;;;;;;14.90;13.33;;;;;;;7.05;nan;97264.72;5034714;28;20440;-72
2023/04/19 07:33:12;;;;;;;13.87;12.57;;;;;;;7.02;nan;97265.06;5053129;28;20230;-75
2023/04/19 07:35:40;;;;;;;14.40;12.90;;;;;;;7.04;nan;97262.28;5047580;28;20411;-72
2023/04/19 07:38:07;;;;;;;14.63;13.20;;;;;;;7.09;nan;97259.97;5031979;28;20202;-73
2023/04/19 07:40:35;;;;;;;15.43;13.83;;;;;;;7.09;nan;97258.16;5062111;28;20229;-74
2023/04/19 07:43:05;;;;;;;13.10;11.90;;;;;;;7.09;nan;97262.59;5013417;28;20662;-73
2023/04/19 07:45:33;;;;;;;14.17;12.87;;;;;;;7.10;nan;97251.91;5031645;28;20617;-73
2023/04/19 07:48:00;;;;;;;13.63;12.43;;;;;;;7.14;nan;97254.22;5055179;28;20747;-72
2023/04/19 07:50:28;;;;;;;14.57;13.17;;;;;;;7.21;nan;97258.69;5051606;28;20722;-72
2023/04/19 07:52:56;;;;;;;14.03;12.40;;;;;;;7.28;nan;97258.88;5050417;28;20221;-72
2023/04/19 07:55:24;;;;;;;15.27;13.87;;;;;;;7.26;nan;97252.09;5028342;28;20221;-73
2023/04/19 07:57:51;;;;;;;15.03;13.63;;;;;;;7.29;nan;97252.63;5001873;28;20230;-73
2023/04/19 08:00:21;;;;;;;23.43;19.37;;;;;;;7.37;nan;97249.16;5039611;28;20658;-74
2023/04/19 08:02:49;;;;;;;15.50;14.00;;;;;;;7.46;nan;97247.38;5053402;28;20206;-72
2023/04/19 08:05:17;;;;;;;14.40;13.00;;;;;;;7.50;nan;97236.34;5048406;28;20215;-72
2023/04/19 08:07:46;;;;;;;12.57;11.43;;;;;;;7.71;nan;97244.75;5050011;28;20465;-72
2023/04/19 08:10:13;;;;;;;12.77;11.57;;;;;;;7.72;nan;97241.13;5029441;28;20669;-72
2023/04/19 08:12:41;;;;;;;25.10;22.40;;;;;;;7.69;nan;97242.28;5005116;28;20518;-71
2023/04/19 08:15:25;;;;;;;16.13;14.53;;;;;;;7.69;nan;97239.63;5051658;28;20275;-74
2023/04/19 08:18:12;;;;;;;14.27;12.97;;;;;;;7.65;nan;97233.88;5028184;28;20953;-73
2023/04/19 08:20:41;;;;;;;13.87;12.67;;;;;;;7.72;nan;97241.13;5053821;28;20283;-72
2023/04/19 08:23:10;;;;;;;12.17;11.13;;;;;;;7.53;nan;97241.28;5052748;28;20226;-73
2023/04/19 08:25:49;;;;;;;15.63;14.23;;;;;;;7.66;nan;97232.06;5031100;28;20210;-71
2023/04/19 08:28:17;;;;;;;14.77;13.27;;;;;;;7.86;nan;97232.56;5001569;28;20214;-73
2023/04/19 08:30:46;;;;;;;14.00;12.70;;;;;;;8.07;nan;97239.97;5055731;28;20203;-71
2023/04/19 08:33:14;;;;;;;13.23;12.07;;;;;;;8.26;nan;97233.50;5033363;28;20338;-73
2023/04/19 08:35:42;;;;;;;13.83;12.63;;;;;;;8.20;nan;97236.00;5055966;28;20491;-72
2023/04/19 08:38:09;;;;;;;14.27;13.07;;;;;;;8.25;nan;97234.50;5053174;28;20222;-71
2023/04/19 08:40:38;;;;;;;13.53;12.23;;;;;;;8.19;nan;97231.72;5030864;28;20233;-70
2023/04/19 08:43:06;;;;;;;12.60;11.60;;;;;;;8.22;nan;97231.38;5057894;28;20281;-70
2023/04/19 08:45:35;;;;;;;13.47;12.20;;;;;;;8.08;nan;97228.41;5015643;28;20226;-71
2023/04/19 08:48:06;;;;;;;13.90;12.53;;;;;;;7.89;nan;97226.13;5042713;28;20202;-74
2023/04/19 08:50:34;;;;;;;15.10;13.70;;;;;;;7.71;nan;97226.31;5061010;28;20345;-72
2023/04/19 08:53:15;;;;;;;14.00;12.67;;;;;;;7.65;nan;97219.88;5054166;28;20234;-71
2023/04/19 08:55:53;;;;;;;13.27;12.13;;;;;;;7.58;nan;97224.16;5029273;28;20272;-72
2023/04/19 08:58:39;;;;;;;13.13;11.93;;;;;;;7.45;nan;97217.56;4990084;28;21398;-73
2023/04/19 09:01:27;;;;;;;12.23;11.13;;;;;;;7.29;nan;97225.41;5056433;28;20322;-71
2023/04/19 09:04:05;;;;;;;12.80;11.70;;;;;;;7.36;nan;97226.41;5033778;28;20230;-71
2023/04/19 09:06:48;;;;;;;11.00;10.10;;;;;;;7.22;nan;97223.44;5054938;28;20246;-72
2023/04/19 09:09:17;;;;;;;12.03;11.03;;;;;;;7.12;nan;97221.94;5051227;28;20450;-71
2023/04/19 09:11:48;;;;;;;12.40;11.30;;;;;;;7.09;nan;97217.81;5035977;28;20237;-70
2023/04/19 09:14:18;;;;;;;12.33;11.23;;;;;;;7.17;nan;97219.63;5011174;28;20230;-73
2023/04/19 09:16:46;;;;;;;12.40;11.30;;;;;;;7.20;nan;97225.41;5056813;28;20601;-69
2023/04/19 09:19:16;;;;;;;12.10;11.10;;;;;;;7.02;nan;97209.72;5051597;28;20566;-72
2023/04/19 09:21:52;;;;;;;12.47;11.40;;;;;;;6.77;nan;97235.16;5051651;28;20241;-69
2023/04/19 09:24:37;;;;;;;12.30;11.20;;;;;;;6.59;nan;97232.63;5052654;28;20599;-71
2023/04/19 09:27:29;;;;;;;14.10;12.70;;;;;;;6.35;nan;97229.69;5033088;28;20202;-73
2023/04/19 09:29:58;;;;;;;12.53;11.37;;;;;;;6.29;nan;97229.50;5004622;28;20214;-72
2023/04/19 09:32:26;;;;;;;15.10;13.70;;;;;;;6.20;nan;97239.97;5051438;28;20648;-72
2023/04/19 09:34:57;;;;;;;14.83;13.43;;;;;;;5.89;nan;97221.16;5050230;28;20731;-70
2023/04/19 09:37:25;;;;;;;15.50;14.03;;;;;;;5.87;nan;97237.06;5028295;28;20299;-72
2023/04/19 09:40:22;;;;;;;17.17;15.57;;;;;;;5.86;nan;97239.84;5052114;28;20599;-72
2023/04/19 09:42:50;;;;;;;16.77;15.17;;;;;;;5.67;nan;97231.16;5055088;28;20220;-70
2023/04/19 09:45:21;;;;;;;16.77;15.07;;;;;;;5.63;nan;97229.81;4982056;28;20210;-72
2023/04/19 09:48:01;;;;;;;17.00;15.30;;;;;;;5.65;nan;97228.69;5056710;28;20536;-70
2023/04/19 09:50:30;;;;;;;17.80;15.97;;;;;;;5.67;nan;97231.16;5026830;28;20295;-72
2023/04/19 09:53:00;;;;;;;19.40;16.97;;;;;;;5.67;nan;97235.59;5049668;28;20213;-71
2023/04/19 09:55:28;;;;;;;18.67;16.87;;;;;;;5.50;nan;97235.47;5052857;28;20214;-72
2023/04/19 09:57:58;;;;;;;16.87;15.17;;;;;;;5.57;nan;97230.44;5050702;28;20246;-71
2023/04/19 10:00:28;;;;;;;16.57;15.07;;;;;;;5.62;nan;97233.44;4988047;28;20218;-74
2023/04/19 10:03:04;;;;;;;15.10;13.57;;;;;;;5.74;nan;97224.31;5055588;28;20236;-73
2023/04/19 10:05:33;;;;;;;15.13;13.63;;;;;;;5.90;nan;97225.44;5025144;28;23386;-72
2023/04/19 10:08:02;;;;;;;15.10;13.70;;;;;;;5.85;nan;97220.63;5055077;28;20214;-71
2023/04/19 10:10:31;;;;;;;15.23;13.83;;;;;;;5.98;nan;97222.03;5052766;28;20706;-71
2023/04/19 10:13:11;;;;;;;15.60;14.20;;;;;;;5.85;nan;97215.38;5051981;28;20334;-72
2023/04/19 10:15:47;;;;;;;15.70;14.10;;;;;;;5.83;nan;97227.00;4984576;28;20524;-73
2023/04/19 10:18:22;;;;;;;14.50;13.07;;;;;;;5.72;nan;97222.84;5053967;28;20240;-73
2023/04/19 10:20:53;;;;;;;14.40;13.03;;;;;;;5.83;nan;97214.69;5050977;28;20202;-72
2023/04/19 10:23:22;;;;;;;14.90;13.47;;;;;;;5.71;nan;97214.09;5031520;28;20238;-73
2023/04/19 10:25:55;;;;;;;13.77;12.47;;;;;;;5.55;nan;97211.34;5058865;28;20283;-71
2023/04/19 10:28:23;;;;;;;14.87;13.30;;;;;;;5.54;nan;97212.34;5053230;28;20259;-73
2023/04/19 10:30:54;;;;;;;15.43;14.03;;;;;;;5.63;nan;97214.06;5035379;28;20570;-72
2023/04/19 10:33:27;;;;;;;13.07;11.83;;;;;;;5.72;nan;97209.69;5008337;28;21239;-76
2023/04/19 10:36:00;;;;;;;14.20;12.80;;;;;;;5.89;nan;97205.38;5057997;28;20217;-74
2023/04/19 10:38:38;;;;;;;13.97;12.67;;;;;;;5.94;nan;97203.09;5032051;28;21060;-72
2023/04/19 10:41:10;;;;;;;15.13;13.73;;;;;;;6.01;nan;97187.53;5054334;28;20220;-72
2023/04/19 10:43:43;;;;;;;13.40;12.13;;;;;;;5.99;nan;97192.09;5056245;28;20405;-72
2023/04/19 10:46:14;;;;;;;12.23;11.13;;;;;;;5.97;nan;97194.06;5055937;28;20233;-74
2023/04/19 10:48:55;;;;;;;12.10;10.57;;;;;;;5.86;nan;97182.00;4997025;28;20502;-74
2023/04/19 10:51:27;;;;;;;12.00;10.80;;;;;;;5.79;nan;97187.06;5053991;28;20585;-73
2023/04/19 10:53:58;;;;;;;13.07;11.73;;;;;;;5.55;nan;97183.25;5031734;28;20230;-73
2023/04/19 10:56:59;;;;;;;13.23;12.13;;;;;;;5.70;nan;97188.00;5046248;28;21472;-73
2023/04/19 10:59:27;;;;;;;11.47;10.37;;;;;;;5.75;nan;97183.91;5052721;28;20230;-73
2023/04/19 11:01:56;;;;;;;11.23;10.23;;;;;;;5.93;nan;97172.53;5035134;28;20213;-73
2023/04/19 11:04:58;;;;;;;12.03;10.93;;;;;;;6.17;nan;97171.03;5003454;28;20233;-75
2023/04/19 11:07:27;;;;;;;12.47;11.27;;;;;;;6.26;nan;97167.50;5035771;28;20209;-74
2023/04/19 11:09:55;;;;;;;11.67;10.67;;;;;;;6.53;nan;97162.16;5065147;28;20206;-73
2023/04/19 11:12:22;;;;;;;11.67;10.73;;;;;;;6.46;nan;97151.44;5058403;28;20237;-74
2023/04/19 11:14:52;;;;;;;11.50;10.50;;;;;;;6.62;nan;97151.50;5055897;28;20287;-72
2023/04/19 11:17:24;;;;;;;10.97;9.97;;;;;;;6.68;nan;97157.13;5035368;28;21467;-74
2023/04/19 11:19:56;;;;;;;10.60;9.60;;;;;;;6.92;nan;97141.38;5012008;28;20218;-72
2023/04/19 11:22:32;;;;;;;9.27;8.57;;;;;;;7.43;nan;97137.81;5047423;28;20458;-73
2023/04/19 11:25:07;;;;;;;8.97;8.17;;;;;;;8.04;nan;97129.47;5032106;28;20229;-71
2023/04/19 11:27:34;;;;;;;8.20;7.50;;;;;;;8.17;nan;97128.94;5052512;28;20892;-71
2023/04/19 11:30:04;;;;;;;8.33;7.63;;;;;;;8.36;nan;97122.44;5057742;28;20280;-74
2023/04/19 11:32:32;;;;;;;8.20;7.50;;;;;;;8.53;nan;97111.84;5029144;28;20857;-71
2023/04/19 11:35:06;;;;;;;7.83;7.13;;;;;;;8.80;nan;97112.34;5008551;28;20873;-71
2023/04/19 11:37:36;;;;;;;7.40;6.70;;;;;;;8.59;nan;97113.78;5051020;28;20573;-71
2023/04/19 11:40:05;;;;;;;8.10;7.40;;;;;;;8.60;nan;97104.88;5037978;28;20768;-74
2023/04/19 11:42:33;;;;;;;7.77;7.07;;;;;;;8.37;nan;97100.31;5049089;28;20473;-72
2023/04/19 11:45:01;;;;;;;7.50;6.87;;;;;;;8.72;nan;97099.19;5053429;28;20217;-72
2023/04/19 11:47:29;;;;;;;7.23;6.53;;;;;;;8.57;nan;97097.31;5051667;28;20206;-74
2023/04/19 11:49:57;;;;;;;7.23;6.63;;;;;;;8.79;nan;97094.84;4989902;28;20211;-74
2023/04/19 11:52:26;;;;;;;8.10;7.40;;;;;;;9.19;nan;97084.19;5047615;28;20295;-73
2023/04/19 11:54:55;;;;;;;6.53;6.03;;;;;;;9.48;nan;97072.03;5034546;28;20234;-75
2023/04/19 11:57:29;;;;;;;6.53;6.03;;;;;;;9.63;nan;97058.81;5049780;28;21657;-73
2023/04/19 12:00:07;;;;;;;5.57;5.17;;;;;;;9.35;nan;97085.88;5052709;28;20226;-73
2023/04/19 12:02:37;;;;;;;5.73;5.33;;;;;;;9.06;nan;97077.66;5058492;28;20230;-72